createdAt,value
2023-04-19T00:01:30.375Z,13.93
2023-04-19T00:03:58.503Z,16.70
2023-04-19T00:06:26.252Z,16.37
2023-04-19T00:08:53.037Z,15.13
2023-04-19T00:11:20.082Z,14.13
2023-04-19T00:13:46.853Z,14.07
2023-04-19T00:16:13.652Z,16.70
2023-04-19T00:18:40.716Z,15.50
2023-04-19T00:21:07.959Z,14.87
2023-04-19T00:23:35.706Z,14.93
2023-04-19T00:26:05.704Z,14.23
2023-04-19T00:28:34.049Z,14.33
2023-04-19T00:31:00.832Z,14.77
2023-04-19T00:33:27.674Z,13.90
2023-04-19T00:35:54.511Z,15.20
2023-04-19T00:38:21.240Z,15.60
2023-04-19T00:40:48.019Z,15.70
2023-04-19T00:43:19.709Z,15.40
2023-04-19T00:45:48.070Z,14.57
2023-04-19T00:48:15.642Z,13.27
2023-04-19T00:50:44.736Z,14.30
2023-04-19T00:53:11.746Z,15.93
2023-04-19T00:55:39.503Z,17.30
2023-04-19T00:58:07.610Z,14.93
2023-04-19T01:00:34.800Z,15.50
2023-04-19T01:03:01.782Z,14.33
2023-04-19T01:05:28.806Z,15.57
2023-04-19T01:07:55.552Z,13.97
2023-04-19T01:10:22.422Z,16.00
2023-04-19T01:12:49.151Z,15.23
2023-04-19T01:15:16.013Z,16.53
2023-04-19T01:17:42.914Z,16.53
2023-04-19T01:20:10.695Z,16.70
2023-04-19T01:22:40.468Z,17.80
2023-04-19T01:25:07.768Z,15.57
2023-04-19T01:27:35.456Z,16.60
2023-04-19T01:30:04.590Z,17.33
2023-04-19T01:32:31.522Z,16.03
2023-04-19T01:34:58.491Z,15.73
2023-04-19T01:37:25.276Z,17.50
2023-04-19T01:39:52.124Z,17.40
2023-04-19T01:42:18.904Z,16.37
2023-04-19T01:44:45.861Z,17.33
2023-04-19T01:47:12.616Z,17.30
2023-04-19T01:49:39.475Z,16.33
2023-04-19T01:52:06.362Z,17.37
2023-04-19T01:54:33.241Z,17.43
2023-04-19T01:57:00.212Z,16.90
2023-04-19T01:59:27.773Z,19.90
2023-04-19T02:01:54.794Z,17.80
2023-04-19T02:04:24.405Z,17.50
2023-04-19T02:06:51.190Z,17.80
2023-04-19T02:09:17.968Z,18.03
2023-04-19T02:11:44.928Z,18.03
2023-04-19T02:14:11.886Z,18.23
2023-04-19T02:16:38.644Z,19.23
2023-04-19T02:19:05.483Z,18.03
2023-04-19T02:21:32.221Z,18.50
2023-04-19T02:23:59.190Z,17.90
2023-04-19T02:26:25.940Z,19.87
2023-04-19T02:28:53.263Z,19.33
2023-04-19T02:31:20.147Z,21.90
2023-04-19T02:33:47.049Z,21.27
2023-04-19T02:36:13.780Z,19.97
2023-04-19T02:38:40.744Z,18.33
2023-04-19T02:41:07.699Z,21.57
2023-04-19T02:43:34.638Z,21.73
2023-04-19T02:46:02.104Z,20.80
2023-04-19T02:48:29.072Z,21.97
2023-04-19T02:50:56.183Z,21.30
2023-04-19T02:53:23.037Z,21.60
2023-04-19T02:55:50.277Z,21.33
2023-04-19T02:58:16.977Z,20.93
2023-04-19T03:00:43.764Z,21.50
2023-04-19T03:03:10.728Z,22.13
2023-04-19T03:05:37.599Z,21.47
2023-04-19T03:08:04.698Z,22.50
2023-04-19T03:10:31.416Z,22.83
2023-04-19T03:12:58.371Z,24.33
2023-04-19T03:15:25.201Z,23.23
2023-04-19T03:17:51.957Z,24.60
2023-04-19T03:20:19.123Z,22.27
2023-04-19T03:22:46.062Z,22.70
2023-04-19T03:25:13.554Z,24.60
2023-04-19T03:27:40.514Z,24.67
2023-04-19T03:30:08.001Z,24.40
2023-04-19T03:32:34.834Z,23.03
2023-04-19T03:35:01.742Z,23.87
2023-04-19T03:37:28.471Z,24.53
2023-04-19T03:39:55.303Z,24.70
2023-04-19T03:42:22.081Z,23.30
2023-04-19T03:44:49.067Z,25.63
2023-04-19T03:47:15.905Z,25.53
2023-04-19T03:49:42.673Z,23.03
2023-04-19T03:52:09.394Z,25.87
2023-04-19T03:54:36.167Z,24.77
2023-04-19T03:57:02.886Z,25.40
2023-04-19T03:59:29.625Z,25.40
2023-04-19T04:01:56.406Z,24.70
2023-04-19T04:04:23.580Z,25.77
2023-04-19T04:06:50.540Z,24.80
2023-04-19T04:09:17.268Z,26.03
2023-04-19T04:11:43.993Z,27.80
2023-04-19T04:14:10.732Z,26.30
2023-04-19T04:16:37.597Z,25.17
2023-04-19T04:19:04.472Z,27.83
2023-04-19T04:21:31.162Z,27.77
2023-04-19T04:23:58.719Z,27.23
2023-04-19T04:26:25.506Z,26.63
2023-04-19T04:28:52.237Z,27.73
2023-04-19T04:31:19.041Z,28.67
2023-04-19T04:33:47.985Z,28.73
2023-04-19T04:36:15.374Z,28.37
2023-04-19T04:38:42.985Z,28.87
2023-04-19T04:41:12.078Z,29.33
2023-04-19T04:43:39.676Z,30.83
2023-04-19T04:46:06.501Z,28.87
2023-04-19T04:48:33.586Z,31.73
2023-04-19T04:51:00.327Z,30.67
2023-04-19T04:53:27.642Z,31.23
2023-04-19T04:55:54.873Z,30.60
2023-04-19T04:58:21.789Z,31.87
2023-04-19T05:00:49.139Z,33.07
2023-04-19T05:03:16.582Z,33.30
2023-04-19T05:05:44.978Z,31.73
2023-04-19T05:08:12.362Z,32.53
2023-04-19T05:10:39.321Z,31.30
2023-04-19T05:13:06.013Z,33.50
2023-04-19T05:15:32.831Z,31.53
2023-04-19T05:17:59.768Z,31.17
2023-04-19T05:20:26.713Z,31.60
2023-04-19T05:23:00.657Z,31.63
2023-04-19T05:25:27.823Z,32.93
2023-04-19T05:27:54.841Z,31.33
2023-04-19T05:30:21.732Z,31.00
2023-04-19T05:32:48.773Z,33.77
2023-04-19T05:35:15.609Z,30.83
2023-04-19T05:37:42.677Z,33.17
2023-04-19T05:40:10.321Z,31.40
2023-04-19T05:42:38.091Z,31.90
2023-04-19T05:45:06.743Z,32.73
2023-04-19T05:47:34.001Z,32.30
2023-04-19T05:50:00.827Z,35.17
2023-04-19T05:52:27.613Z,32.40
2023-04-19T05:54:55.305Z,31.10
2023-04-19T05:57:22.041Z,31.87
2023-04-19T05:59:48.896Z,32.13
2023-04-19T06:02:16.111Z,31.87
2023-04-19T06:04:43.434Z,32.97
2023-04-19T06:07:26.434Z,30.77
2023-04-19T06:09:57.451Z,30.50
2023-04-19T06:12:24.325Z,31.80
2023-04-19T06:14:51.969Z,30.87
2023-04-19T06:17:23.513Z,32.63
2023-04-19T06:19:51.253Z,31.47
2023-04-19T06:22:18.048Z,34.40
2023-04-19T06:24:46.081Z,31.70
2023-04-19T06:27:13.061Z,32.83
2023-04-19T06:29:39.813Z,32.53
2023-04-19T06:32:06.634Z,31.10
2023-04-19T06:34:33.419Z,32.00
2023-04-19T06:37:00.472Z,31.17
2023-04-19T06:39:27.789Z,30.57
2023-04-19T06:41:54.503Z,31.10
2023-04-19T06:44:21.505Z,31.80
2023-04-19T06:46:48.608Z,29.07
2023-04-19T06:49:15.578Z,30.67
2023-04-19T06:51:42.362Z,29.73
2023-04-19T06:54:09.104Z,28.70
2023-04-19T06:56:45.701Z,27.80
2023-04-19T06:59:20.421Z,29.07
2023-04-19T07:01:47.991Z,28.67
2023-04-19T07:04:16.046Z,29.70
2023-04-19T07:06:43.177Z,28.90
2023-04-19T07:09:09.884Z,28.87
2023-04-19T07:11:36.828Z,28.07
2023-04-19T07:14:03.915Z,28.50
2023-04-19T07:16:30.994Z,29.27
2023-04-19T07:18:57.975Z,28.23
2023-04-19T07:21:28.636Z,27.17
2023-04-19T07:23:55.517Z,27.50
2023-04-19T07:26:22.420Z,27.57
2023-04-19T07:28:49.595Z,29.13
2023-04-19T07:31:17.933Z,26.47
2023-04-19T07:33:45.179Z,25.03
2023-04-19T07:36:11.895Z,26.70
2023-04-19T07:38:38.757Z,27.47
2023-04-19T07:41:06.484Z,25.20
2023-04-19T07:43:33.626Z,26.27
2023-04-19T07:46:00.499Z,27.00
2023-04-19T07:48:27.514Z,27.33
2023-04-19T07:50:54.215Z,25.90
2023-04-19T07:53:21.034Z,26.40
2023-04-19T07:55:47.833Z,26.50
2023-04-19T07:58:14.925Z,26.20
2023-04-19T08:00:41.631Z,26.10
2023-04-19T08:03:08.571Z,27.73
2023-04-19T08:05:35.819Z,27.53
2023-04-19T08:08:03.057Z,26.23
2023-04-19T08:10:31.016Z,26.10
2023-04-19T08:13:05.250Z,25.47
2023-04-19T08:18:06.518Z,26.10
2023-04-19T08:20:33.732Z,26.83
2023-04-19T08:23:10.253Z,27.10
2023-04-19T08:25:45.457Z,27.20
2023-04-19T08:28:12.764Z,25.90
2023-04-19T08:30:40.854Z,26.17
2023-04-19T08:33:08.633Z,26.30
2023-04-19T08:35:39.334Z,24.67
2023-04-19T08:38:06.407Z,24.50
2023-04-19T08:40:33.654Z,25.60
2023-04-19T08:43:05.288Z,24.70
2023-04-19T08:45:32.853Z,25.23
2023-04-19T08:48:02.325Z,23.40
2023-04-19T08:50:35.895Z,23.97
2023-04-19T08:55:58.500Z,23.37
2023-04-19T09:01:05.093Z,22.73
2023-04-19T09:03:38.557Z,23.13
2023-04-19T09:06:14.594Z,24.57
2023-04-19T09:08:42.342Z,24.03
2023-04-19T09:11:09.295Z,23.60
2023-04-19T09:13:40.556Z,24.23
2023-04-19T09:16:24.154Z,24.97
2023-04-19T09:19:08.155Z,24.70
2023-04-19T09:21:42.621Z,25.13
2023-04-19T09:24:09.553Z,25.27
2023-04-19T09:26:37.246Z,24.93
2023-04-19T09:29:07.978Z,25.47
2023-04-19T09:34:17.260Z,24.83
2023-04-19T09:36:44.408Z,24.57
2023-04-19T09:39:12.039Z,23.30
2023-04-19T09:41:55.150Z,23.77
2023-04-19T09:44:53.111Z,23.57
2023-04-19T09:47:30.015Z,25.53
2023-04-19T09:50:21.863Z,24.33
2023-04-19T09:53:03.624Z,23.30
2023-04-19T09:55:38.329Z,22.57
2023-04-19T09:58:11.835Z,22.67
2023-04-19T10:00:47.858Z,20.10
2023-04-19T10:03:16.725Z,20.90
2023-04-19T10:05:45.277Z,20.63
2023-04-19T10:08:13.885Z,20.30
2023-04-19T10:10:42.887Z,21.73
2023-04-19T10:15:51.324Z,22.37
2023-04-19T10:18:22.689Z,20.43
2023-04-19T10:20:57.098Z,21.13
2023-04-19T10:23:24.318Z,20.43
2023-04-19T10:25:57.819Z,20.97
2023-04-19T10:28:24.806Z,20.70
2023-04-19T10:31:01.020Z,20.17
2023-04-19T10:33:31.073Z,20.27
2023-04-19T10:36:02.515Z,22.17
2023-04-19T10:38:43.115Z,19.83
2023-04-19T10:41:16.931Z,20.37
2023-04-19T10:44:08.652Z,20.80
2023-04-19T10:46:36.321Z,21.40
2023-04-19T10:49:05.192Z,23.47
2023-04-19T10:51:36.787Z,27.50
2023-04-19T10:54:09.727Z,27.63
2023-04-19T10:56:36.408Z,27.70
2023-04-19T10:59:12.611Z,22.03
2023-04-19T11:02:02.562Z,20.53
2023-04-19T11:04:33.028Z,18.47
2023-04-19T11:07:07.403Z,18.90
2023-04-19T11:09:39.627Z,31.50
2023-04-19T11:12:08.889Z,24.00
2023-04-19T11:14:42.545Z,26.10
2023-04-19T11:17:26.001Z,22.07
2023-04-19T11:20:10.438Z,23.73
2023-04-19T11:22:41.580Z,16.87
2023-04-19T11:25:13.394Z,17.10
2023-04-19T11:27:45.244Z,18.43
2023-04-19T11:30:13.640Z,19.20
2023-04-19T11:32:54.299Z,15.73
2023-04-19T11:35:27.119Z,16.70
2023-04-19T11:37:55.302Z,16.17
2023-04-19T11:40:23.513Z,15.27
2023-04-19T11:43:01.029Z,15.90
2023-04-19T11:45:40.979Z,15.63
2023-04-19T11:48:17.948Z,14.87
2023-04-19T11:50:45.875Z,14.87
2023-04-19T11:53:23.446Z,16.37
2023-04-19T11:56:11.684Z,14.73
2023-04-19T11:58:44.564Z,14.77
2023-04-19T12:01:12.557Z,16.57
2023-04-19T12:03:52.942Z,15.70
2023-04-19T12:06:30.812Z,14.43
2023-04-19T12:08:57.688Z,13.53
2023-04-19T12:11:27.432Z,13.20
2023-04-19T12:14:10.404Z,12.70
2023-04-19T12:16:37.711Z,12.73
2023-04-19T12:19:15.436Z,13.00
2023-04-19T12:21:43.520Z,13.03
2023-04-19T12:24:10.809Z,12.57
2023-04-19T12:26:56.260Z,11.43
2023-04-19T12:29:23.485Z,11.63
2023-04-19T12:31:50.271Z,12.23
2023-04-19T12:34:17.045Z,12.50
2023-04-19T12:36:43.828Z,12.97
2023-04-19T12:39:10.583Z,12.40
2023-04-19T12:41:37.375Z,12.30
2023-04-19T12:44:04.215Z,12.10
2023-04-19T12:46:31.249Z,12.17
2023-04-19T12:48:58.152Z,11.43
2023-04-19T12:51:24.922Z,11.20
2023-04-19T12:53:52.710Z,10.10
2023-04-19T12:56:19.765Z,10.87
2023-04-19T12:58:46.722Z,10.43
2023-04-19T13:01:13.665Z,11.03
2023-04-19T13:03:40.701Z,9.97
2023-04-19T13:06:07.798Z,9.13
2023-04-19T13:08:44.738Z,10.33
2023-04-19T13:11:14.830Z,10.57
2023-04-19T13:13:41.743Z,10.47
2023-04-19T13:16:08.792Z,11.03
2023-04-19T13:18:35.653Z,11.47
2023-04-19T13:21:02.427Z,10.87
2023-04-19T13:23:29.219Z,10.70
2023-04-19T13:25:56.833Z,9.50
2023-04-19T13:28:23.998Z,9.60
2023-04-19T13:30:51.024Z,9.30
2023-04-19T13:33:17.856Z,9.37
2023-04-19T13:35:45.136Z,9.30
2023-04-19T13:38:12.099Z,8.07
2023-04-19T13:40:38.961Z,8.87
2023-04-19T13:43:05.724Z,7.63
2023-04-19T13:45:32.501Z,6.53
2023-04-19T13:47:59.395Z,6.70
2023-04-19T13:50:26.547Z,5.73
2023-04-19T13:52:53.397Z,6.30
2023-04-19T13:55:20.490Z,5.47
2023-04-19T13:57:47.546Z,5.43
2023-04-19T14:00:15.015Z,5.83
2023-04-19T14:02:42.262Z,5.97
2023-04-19T14:05:09.593Z,6.23
2023-04-19T14:07:39.371Z,6.03
2023-04-19T14:10:07.442Z,6.23
2023-04-19T14:12:34.159Z,5.50
2023-04-19T14:15:01.591Z,5.53
2023-04-19T14:17:28.805Z,4.80
2023-04-19T14:19:56.384Z,5.57
2023-04-19T14:22:23.203Z,5.57
2023-04-19T14:24:50.020Z,5.87
2023-04-19T14:27:17.039Z,5.20
2023-04-19T14:29:43.811Z,5.43
2023-04-19T14:34:43.715Z,4.93
2023-04-19T14:37:10.606Z,5.40
2023-04-19T14:39:37.376Z,4.97
2023-04-19T14:42:04.208Z,4.23
2023-04-19T14:44:30.968Z,3.93
2023-04-19T14:46:57.783Z,4.00
2023-04-19T14:49:26.993Z,4.30
2023-04-19T14:51:54.354Z,4.10
2023-04-19T14:54:21.163Z,4.63
2023-04-19T14:56:47.879Z,3.90
2023-04-19T14:59:14.907Z,4.57
2023-04-19T15:01:44.181Z,3.77
2023-04-19T15:04:11.452Z,3.80
2023-04-19T15:06:38.384Z,3.67
2023-04-19T15:09:05.310Z,3.23
2023-04-19T15:11:32.114Z,3.30
2023-04-19T15:13:58.878Z,3.07
2023-04-19T15:16:25.679Z,3.00
2023-04-19T15:18:53.119Z,3.33
2023-04-19T15:21:24.192Z,2.87
2023-04-19T15:23:51.515Z,3.07
2023-04-19T15:26:18.424Z,3.23
2023-04-19T15:28:45.385Z,3.57
2023-04-19T15:31:12.457Z,2.87
2023-04-19T15:33:39.298Z,2.90
2023-04-19T15:36:06.289Z,3.03
2023-04-19T15:38:33.243Z,3.40
2023-04-19T15:41:02.557Z,3.53
2023-04-19T15:43:29.676Z,3.77
2023-04-19T15:45:56.986Z,3.63
2023-04-19T15:48:23.904Z,3.10
2023-04-19T15:50:50.835Z,3.27
2023-04-19T15:53:17.665Z,3.03
2023-04-19T15:55:46.929Z,3.27
2023-04-19T15:58:13.834Z,2.90
2023-04-19T16:00:40.670Z,3.33
2023-04-19T16:03:09.820Z,3.10
2023-04-19T16:05:36.737Z,2.90
2023-04-19T16:08:04.599Z,3.17
2023-04-19T16:10:31.671Z,3.30
2023-04-19T16:12:58.556Z,4.30
2023-04-19T16:15:25.526Z,3.53
2023-04-19T16:17:52.531Z,3.73
2023-04-19T16:20:20.571Z,3.40
2023-04-19T16:22:48.029Z,4.17
2023-04-19T16:25:16.204Z,4.37
2023-04-19T16:27:44.539Z,4.00
2023-04-19T16:30:12.526Z,3.93
2023-04-19T16:32:40.609Z,4.00
2023-04-19T16:35:08.311Z,3.87
2023-04-19T16:37:35.637Z,3.70
2023-04-19T16:40:09.550Z,3.73
2023-04-19T16:42:38.157Z,3.53
2023-04-19T16:45:06.458Z,4.23
2023-04-19T16:47:34.494Z,3.60
2023-04-19T16:50:02.151Z,3.30
2023-04-19T16:52:31.104Z,4.07
2023-04-19T16:54:58.159Z,3.77
2023-04-19T16:57:24.944Z,3.90
2023-04-19T16:59:51.850Z,3.90
2023-04-19T17:02:18.772Z,3.90
2023-04-19T17:04:45.932Z,3.67
2023-04-19T17:07:12.909Z,3.47
2023-04-19T17:09:39.850Z,3.20
2023-04-19T17:12:07.113Z,3.50
2023-04-19T17:14:35.445Z,3.63
2023-04-19T17:17:02.759Z,3.80
2023-04-19T17:19:29.714Z,3.33
2023-04-19T17:21:56.529Z,3.90
2023-04-19T17:24:25.500Z,3.93
2023-04-19T17:26:52.312Z,3.70
2023-04-19T17:29:19.235Z,3.90
2023-04-19T17:31:46.146Z,4.03
2023-04-19T17:34:13.125Z,3.77
2023-04-19T17:36:41.279Z,3.90
2023-04-19T17:39:08.178Z,4.47
2023-04-19T17:41:34.945Z,3.93
2023-04-19T17:44:01.761Z,3.50
2023-04-19T17:46:28.614Z,4.10
2023-04-19T17:48:55.618Z,4.10
2023-04-19T17:51:22.522Z,3.50
2023-04-19T17:53:49.262Z,3.80
2023-04-19T17:56:16.054Z,3.83
2023-04-19T17:58:42.828Z,4.10
2023-04-19T18:01:10.450Z,4.23
2023-04-19T18:03:38.012Z,4.50
2023-04-19T18:06:06.138Z,4.33
2023-04-19T18:08:32.877Z,4.07
2023-04-19T18:10:59.670Z,3.87
2023-04-19T18:13:26.638Z,3.50
2023-04-19T18:15:53.467Z,3.77
2023-04-19T18:18:20.322Z,4.50
2023-04-19T18:20:47.300Z,3.53
2023-04-19T18:23:14.074Z,4.57
2023-04-19T18:25:40.851Z,3.43
2023-04-19T18:28:07.568Z,3.50
2023-04-19T18:30:34.638Z,3.50
2023-04-19T18:33:01.417Z,3.43
2023-04-19T18:35:28.186Z,3.50
2023-04-19T18:37:54.939Z,3.63
2023-04-19T18:40:21.723Z,3.80
2023-04-19T18:42:48.503Z,3.63
2023-04-19T18:45:15.230Z,3.47
2023-04-19T18:47:42.197Z,3.20
2023-04-19T18:50:09.956Z,3.27
2023-04-19T18:52:37.308Z,3.87
2023-04-19T18:55:06.045Z,3.50
2023-04-19T18:57:34.869Z,3.60
2023-04-19T19:00:04.802Z,3.40
2023-04-19T19:02:34.012Z,3.33
2023-04-19T19:05:02.229Z,3.30
2023-04-19T19:10:01.494Z,3.80
2023-04-19T19:12:29.289Z,3.63
2023-04-19T19:14:56.129Z,3.20
2023-04-19T19:17:24.265Z,3.13
2023-04-19T19:19:51.250Z,3.23
2023-04-19T19:22:25.575Z,3.33
2023-04-19T19:24:54.124Z,3.10
2023-04-19T19:27:21.352Z,3.40
2023-04-19T19:29:48.100Z,3.67
2023-04-19T19:32:14.872Z,2.93
2023-04-19T19:34:53.829Z,3.27
2023-04-19T19:37:23.236Z,2.50
2023-04-19T19:39:50.601Z,2.40
2023-04-19T19:42:19.283Z,3.07
2023-04-19T19:44:46.116Z,2.70
2023-04-19T19:47:13.354Z,3.10
2023-04-19T19:50:04.719Z,2.83
2023-04-19T19:52:28.760Z,3.50
2023-04-19T19:54:55.775Z,2.60
2023-04-19T19:59:56.228Z,2.33
2023-04-19T20:02:24.638Z,3.37
2023-04-19T20:04:51.837Z,3.23
2023-04-19T20:07:29.409Z,2.50
2023-04-19T20:10:09.171Z,2.83
2023-04-19T20:12:36.211Z,2.60
2023-04-19T20:15:03.871Z,2.67
2023-04-19T20:17:30.755Z,2.40
2023-04-19T20:19:58.265Z,2.87
2023-04-19T20:22:25.143Z,2.77
2023-04-19T20:24:52.858Z,2.50
2023-04-19T20:27:19.868Z,2.43
2023-04-19T20:29:46.626Z,2.43
2023-04-19T20:32:13.649Z,2.70
2023-04-19T20:34:40.584Z,2.70
2023-04-19T20:37:07.801Z,2.50
2023-04-19T20:39:34.697Z,2.30
2023-04-19T20:42:01.577Z,2.47
2023-04-19T20:44:30.615Z,2.60
2023-04-19T20:46:57.462Z,2.10
2023-04-19T20:49:24.335Z,2.30
2023-04-19T20:51:51.802Z,2.80
2023-04-19T20:54:19.774Z,2.73
2023-04-19T20:56:48.089Z,2.33
2023-04-19T20:59:15.194Z,2.20
2023-04-19T21:01:43.193Z,2.20
2023-04-19T21:04:10.852Z,2.20
2023-04-19T21:06:37.672Z,2.47
2023-04-19T21:09:04.486Z,2.20
2023-04-19T21:11:31.357Z,2.37
2023-04-19T21:13:58.222Z,2.57
2023-04-19T21:16:25.145Z,2.40
2023-04-19T21:18:51.982Z,2.70
2023-04-19T21:21:18.799Z,3.03
2023-04-19T21:23:45.559Z,2.13
2023-04-19T21:26:12.423Z,2.97
2023-04-19T21:28:39.345Z,2.60
2023-04-19T21:31:06.189Z,2.70
2023-04-19T21:33:32.961Z,2.80
2023-04-19T21:36:00.210Z,2.70
2023-04-19T21:38:27.022Z,3.20
2023-04-19T21:40:53.816Z,2.80
2023-04-19T21:43:20.698Z,2.87
2023-04-19T21:45:47.539Z,2.60
2023-04-19T21:48:14.361Z,3.03
2023-04-19T21:50:41.338Z,2.93
2023-04-19T21:53:08.108Z,3.00
2023-04-19T21:55:34.973Z,3.27
2023-04-19T21:58:02.109Z,4.17
2023-04-19T22:00:29.053Z,3.63
2023-04-19T22:02:56.210Z,3.53
2023-04-19T22:05:23.021Z,3.83
2023-04-19T22:07:49.995Z,4.80
2023-04-19T22:10:17.455Z,3.63
2023-04-19T22:12:55.486Z,3.93
2023-04-19T22:15:25.974Z,3.80
2023-04-19T22:17:52.964Z,4.03
2023-04-19T22:20:19.863Z,4.07
2023-04-19T22:22:46.687Z,4.13
2023-04-19T22:25:13.461Z,3.90
2023-04-19T22:27:40.227Z,3.63
2023-04-19T22:30:07.746Z,3.67
2023-04-19T22:32:34.602Z,3.90
2023-04-19T22:35:01.411Z,4.47
2023-04-19T22:37:28.163Z,3.77
2023-04-19T22:39:54.880Z,4.57
2023-04-19T22:42:21.873Z,4.03
2023-04-19T22:44:48.664Z,4.40
2023-04-19T22:47:15.904Z,4.87
2023-04-19T22:49:43.509Z,3.80
2023-04-19T22:52:11.557Z,4.47
2023-04-19T22:54:38.384Z,4.60
2023-04-19T22:57:05.130Z,4.87
2023-04-19T22:59:31.934Z,4.47
2023-04-19T23:01:58.729Z,4.83
2023-04-19T23:04:25.538Z,4.47
2023-04-19T23:06:52.592Z,4.70
2023-04-19T23:09:19.662Z,5.00
2023-04-19T23:11:47.542Z,4.80
2023-04-19T23:14:18.416Z,5.97
2023-04-19T23:16:46.144Z,5.43
2023-04-19T23:19:12.851Z,5.30
2023-04-19T23:21:39.615Z,5.17
2023-04-19T23:24:06.682Z,5.13
2023-04-19T23:26:33.397Z,5.97
2023-04-19T23:29:00.306Z,5.93
2023-04-19T23:31:27.167Z,5.57
2023-04-19T23:33:53.989Z,5.90
2023-04-19T23:36:21.000Z,5.60
2023-04-19T23:38:47.764Z,5.03
2023-04-19T23:41:14.504Z,6.50
2023-04-19T23:43:41.446Z,6.63
2023-04-19T23:46:08.285Z,6.10
2023-04-19T23:48:35.324Z,7.27
2023-04-19T23:51:02.033Z,6.87
2023-04-19T23:53:28.870Z,7.03
2023-04-19T23:55:55.680Z,6.80
2023-04-19T23:58:22.551Z,7.63
